Chloride, AZ (86431)

11:09 PM MST on July 23, 2016 (GMT -0700)
MesoWest | | Change Station

Elev 6491 ft 35.10 °N, 113.89 °W | Updated 46 minutes ago

Clear
Clear
78.0 °F
Feels Like 78.0 °F
N
0.0
Wind Variable Wind from North
Gusts 0.0 mph

Today
High -- | Low -- °F
--% Chance of Precip.
Yesterday
High -- | Low -- °F
Precip. -- in
Pressure 29.71 in
Visibility 10.0 miles
Clouds Clear
Dew Point 45.0 °F
Humidity 30%
Rainfall in
Snow Depth Not available.
5:39 AM 7:47 PM
Waning Gibbous, 79% visible
METAR KIGM 240551Z AUTO 21010KT 10SM CLR 31/09 A2996 RMK AO2 SLP059 T03110094 10394 20311 50010 $
Pressure 29.71 in
Visibility 10.0 miles
Clouds Clear
Dew Point 45.0 °F
Humidity 30%
Rainfall in
Snow Depth Not available.
5:39 AM 7:47 PM
Waning Gibbous, 79% visible
METAR KIGM 240551Z AUTO 21010KT 10SM CLR 31/09 A2996 RMK AO2 SLP059 T03110094 10394 20311 50010 $

10-Day Weather Forecast

Almanac

Astronomy

Jul. 23, 2016 Rise Set
Actual Time
Civil Twilight
Nautical Twilight
Astronomical Twilight
Moon
Length of Visible Light
Length of Day
Tomorrow will be .
, % of the Moon is Illuminated

Today's Extremes

State Highs State Lows

Community

WunderPhotos

Upload Photos

1,927,039 photos uploaded!

WunderBlog® & News

Nearby

Air Quality

  Air Quality AQ Index Pollutant
Not available.

Snow Depth

Station Depth Elevation

Earthquake Activity

City Distance Mag. Time & Date
Minimum magnitude displayed is 2.5.

Coastal Water Temperatures

Place Temperature

Stations

Nearby Weather Stations

Station Location Temp. Windchill Dew Point Humidity Wind Precip. Elev Updated Type
                   

Watches & Warnings

There are currently no watches in effect.